sensor_id;sensor_type;location;lat;lon;timestamp;P1;durP1;ratioP1;P2;durP2;ratioP2
32639;SDS011;19049;52.524;11.468;2023-05-10T00:00:12;4.17;;;2.27;;
32639;SDS011;19049;52.524;11.468;2023-05-10T00:02:38;3.00;;;2.27;;
32639;SDS011;19049;52.524;11.468;2023-05-10T00:05:04;2.43;;;2.23;;
32639;SDS011;19049;52.524;11.468;2023-05-10T00:07:30;4.43;;;2.23;;
32639;SDS011;19049;52.524;11.468;2023-05-10T00:09:56;2.80;;;2.33;;
32639;SDS011;19049;52.524;11.468;2023-05-10T00:12:21;2.83;;;1.83;;
32639;SDS011;19049;52.524;11.468;2023-05-10T00:14:47;2.23;;;2.03;;
32639;SDS011;19049;52.524;11.468;2023-05-10T00:17:13;3.43;;;2.50;;
32639;SDS011;19049;52.524;11.468;2023-05-10T00:19:39;2.97;;;2.10;;
32639;SDS011;19049;52.524;11.468;2023-05-10T00:22:04;2.30;;;2.10;;
32639;SDS011;19049;52.524;11.468;2023-05-10T00:24:31;3.67;;;2.13;;
32639;SDS011;19049;52.524;11.468;2023-05-10T00:26:57;3.53;;;2.03;;
32639;SDS011;19049;52.524;11.468;2023-05-10T00:29:22;2.93;;;2.03;;
32639;SDS011;19049;52.524;11.468;2023-05-10T00:31:49;4.63;;;2.00;;
32639;SDS011;19049;52.524;11.468;2023-05-10T00:34:14;2.50;;;2.23;;
32639;SDS011;19049;52.524;11.468;2023-05-10T00:36:40;2.53;;;2.00;;
32639;SDS011;19049;52.524;11.468;2023-05-10T00:39:06;2.87;;;2.00;;
32639;SDS011;19049;52.524;11.468;2023-05-10T00:41:32;3.00;;;2.40;;
32639;SDS011;19049;52.524;11.468;2023-05-10T00:43:58;2.17;;;1.87;;
32639;SDS011;19049;52.524;11.468;2023-05-10T00:46:25;2.47;;;2.23;;
32639;SDS011;19049;52.524;11.468;2023-05-10T00:48:51;6.50;;;2.10;;
32639;SDS011;19049;52.524;11.468;2023-05-10T00:51:17;2.53;;;2.17;;
32639;SDS011;19049;52.524;11.468;2023-05-10T00:53:46;4.30;;;2.10;;
32639;SDS011;19049;52.524;11.468;2023-05-10T00:56:13;2.97;;;2.27;;
32639;SDS011;19049;52.524;11.468;2023-05-10T00:58:39;2.47;;;2.27;;
32639;SDS011;19049;52.524;11.468;2023-05-10T01:01:05;4.07;;;2.27;;
32639;SDS011;19049;52.524;11.468;2023-05-10T01:03:32;2.33;;;1.70;;
32639;SDS011;19049;52.524;11.468;2023-05-10T01:05:57;3.60;;;2.50;;
32639;SDS011;19049;52.524;11.468;2023-05-10T01:08:23;4.13;;;2.50;;
32639;SDS011;19049;52.524;11.468;2023-05-10T01:10:50;4.30;;;2.57;;
32639;SDS011;19049;52.524;11.468;2023-05-10T01:13:18;2.17;;;1.97;;
32639;SDS011;19049;52.524;11.468;2023-05-10T01:15:54;3.73;;;2.53;;
32639;SDS011;19049;52.524;11.468;2023-05-10T01:18:21;2.77;;;2.30;;
32639;SDS011;19049;52.524;11.468;2023-05-10T01:20:47;2.40;;;2.20;;
32639;SDS011;19049;52.524;11.468;2023-05-10T01:23:25;2.63;;;2.20;;
32639;SDS011;19049;52.524;11.468;2023-05-10T01:29:18;3.80;;;2.40;;
32639;SDS011;19049;52.524;11.468;2023-05-10T01:32:20;3.10;;;2.50;;
32639;SDS011;19049;52.524;11.468;2023-05-10T01:34:55;4.70;;;1.90;;
32639;SDS011;19049;52.524;11.468;2023-05-10T01:37:36;3.27;;;1.93;;
32639;SDS011;19049;52.524;11.468;2023-05-10T01:43:10;3.10;;;2.30;;
32639;SDS011;19049;52.524;11.468;2023-05-10T01:48:17;2.60;;;2.23;;
32639;SDS011;19049;52.524;11.468;2023-05-10T01:50:45;2.57;;;2.13;;
32639;SDS011;19049;52.524;11.468;2023-05-10T01:53:13;3.47;;;1.87;;
32639;SDS011;19049;52.524;11.468;2023-05-10T01:55:48;2.63;;;2.00;;
32639;SDS011;19049;52.524;11.468;2023-05-10T01:58:19;3.40;;;2.53;;
32639;SDS011;19049;52.524;11.468;2023-05-10T02:00:47;3.37;;;2.40;;
32639;SDS011;19049;52.524;11.468;2023-05-10T02:03:15;2.50;;;1.97;;
32639;SDS011;19049;52.524;11.468;2023-05-10T02:05:43;2.30;;;2.00;;
32639;SDS011;19049;52.524;11.468;2023-05-10T02:08:10;3.50;;;2.20;;
32639;SDS011;19049;52.524;11.468;2023-05-10T02:10:38;2.30;;;2.00;;
32639;SDS011;19049;52.524;11.468;2023-05-10T02:13:05;4.30;;;2.20;;
32639;SDS011;19049;52.524;11.468;2023-05-10T02:15:32;3.40;;;1.97;;
32639;SDS011;19049;52.524;11.468;2023-05-10T02:17:59;2.47;;;2.20;;
32639;SDS011;19049;52.524;11.468;2023-05-10T02:20:27;3.23;;;2.33;;
32639;SDS011;19049;52.524;11.468;2023-05-10T02:22:54;2.93;;;2.37;;
32639;SDS011;19049;52.524;11.468;2023-05-10T02:25:21;2.93;;;2.30;;
32639;SDS011;19049;52.524;11.468;2023-05-10T02:27:48;3.47;;;2.60;;
32639;SDS011;19049;52.524;11.468;2023-05-10T02:30:15;2.17;;;1.93;;
32639;SDS011;19049;52.524;11.468;2023-05-10T02:32:42;4.77;;;2.43;;
32639;SDS011;19049;52.524;11.468;2023-05-10T02:35:09;4.10;;;2.60;;
32639;SDS011;19049;52.524;11.468;2023-05-10T02:37:36;3.03;;;2.73;;
32639;SDS011;19049;52.524;11.468;2023-05-10T02:40:03;2.90;;;2.40;;
32639;SDS011;19049;52.524;11.468;2023-05-10T02:42:31;2.60;;;2.33;;
32639;SDS011;19049;52.524;11.468;2023-05-10T02:45:00;7.53;;;2.83;;
32639;SDS011;19049;52.524;11.468;2023-05-10T02:47:28;2.27;;;2.07;;
32639;SDS011;19049;52.524;11.468;2023-05-10T02:49:54;3.53;;;2.70;;
32639;SDS011;19049;52.524;11.468;2023-05-10T02:52:24;5.00;;;2.57;;
32639;SDS011;19049;52.524;11.468;2023-05-10T02:54:58;6.00;;;2.23;;
32639;SDS011;19049;52.524;11.468;2023-05-10T02:57:28;3.07;;;2.33;;
32639;SDS011;19049;52.524;11.468;2023-05-10T02:59:58;3.80;;;2.40;;
32639;SDS011;19049;52.524;11.468;2023-05-10T03:02:25;2.90;;;1.83;;
32639;SDS011;19049;52.524;11.468;2023-05-10T03:04:51;3.40;;;2.67;;
32639;SDS011;19049;52.524;11.468;2023-05-10T03:07:16;3.40;;;2.50;;
32639;SDS011;19049;52.524;11.468;2023-05-10T03:09:44;3.80;;;2.57;;
32639;SDS011;19049;52.524;11.468;2023-05-10T03:14:44;4.53;;;2.93;;
32639;SDS011;19049;52.524;11.468;2023-05-10T03:20:25;4.40;;;2.90;;
32639;SDS011;19049;52.524;11.468;2023-05-10T03:23:02;4.03;;;2.50;;
32639;SDS011;19049;52.524;11.468;2023-05-10T03:25:49;5.93;;;2.43;;
32639;SDS011;19049;52.524;11.468;2023-05-10T03:28:16;2.97;;;2.43;;
32639;SDS011;19049;52.524;11.468;2023-05-10T03:30:43;2.87;;;2.33;;
32639;SDS011;19049;52.524;11.468;2023-05-10T03:33:09;3.50;;;2.93;;
32639;SDS011;19049;52.524;11.468;2023-05-10T03:35:35;4.53;;;2.50;;
32639;SDS011;19049;52.524;11.468;2023-05-10T03:38:01;3.50;;;2.57;;
32639;SDS011;19049;52.524;11.468;2023-05-10T03:40:26;4.00;;;2.80;;
32639;SDS011;19049;52.524;11.468;2023-05-10T03:42:54;3.43;;;2.57;;
32639;SDS011;19049;52.524;11.468;2023-05-10T03:45:20;3.93;;;2.30;;
32639;SDS011;19049;52.524;11.468;2023-05-10T03:47:47;3.83;;;2.77;;
32639;SDS011;19049;52.524;11.468;2023-05-10T03:50:13;2.90;;;2.30;;
32639;SDS011;19049;52.524;11.468;2023-05-10T03:52:39;3.30;;;2.40;;
32639;SDS011;19049;52.524;11.468;2023-05-10T03:55:05;3.03;;;2.37;;
32639;SDS011;19049;52.524;11.468;2023-05-10T03:57:31;3.43;;;2.60;;
32639;SDS011;19049;52.524;11.468;2023-05-10T03:59:57;2.57;;;2.03;;
32639;SDS011;19049;52.524;11.468;2023-05-10T04:02:23;3.23;;;2.57;;
32639;SDS011;19049;52.524;11.468;2023-05-10T04:04:49;3.23;;;2.33;;
32639;SDS011;19049;52.524;11.468;2023-05-10T04:07:15;3.97;;;2.77;;
32639;SDS011;19049;52.524;11.468;2023-05-10T04:09:41;5.03;;;2.50;;
32639;SDS011;19049;52.524;11.468;2023-05-10T04:12:07;2.93;;;2.23;;
32639;SDS011;19049;52.524;11.468;2023-05-10T04:14:33;2.83;;;2.30;;
32639;SDS011;19049;52.524;11.468;2023-05-10T04:16:59;3.07;;;2.53;;
32639;SDS011;19049;52.524;11.468;2023-05-10T04:19:28;4.13;;;2.13;;
32639;SDS011;19049;52.524;11.468;2023-05-10T04:21:57;4.67;;;2.80;;
32639;SDS011;19049;52.524;11.468;2023-05-10T04:24:23;5.27;;;2.90;;
32639;SDS011;19049;52.524;11.468;2023-05-10T04:26:49;2.97;;;2.10;;
32639;SDS011;19049;52.524;11.468;2023-05-10T04:29:15;2.83;;;2.30;;
32639;SDS011;19049;52.524;11.468;2023-05-10T04:31:40;3.90;;;2.40;;
32639;SDS011;19049;52.524;11.468;2023-05-10T04:34:06;2.83;;;2.40;;
32639;SDS011;19049;52.524;11.468;2023-05-10T04:36:32;3.97;;;2.83;;
32639;SDS011;19049;52.524;11.468;2023-05-10T04:39:00;2.47;;;2.10;;
32639;SDS011;19049;52.524;11.468;2023-05-10T04:41:27;3.17;;;2.20;;
32639;SDS011;19049;52.524;11.468;2023-05-10T04:43:53;2.43;;;2.03;;
32639;SDS011;19049;52.524;11.468;2023-05-10T04:46:20;3.17;;;2.10;;
32639;SDS011;19049;52.524;11.468;2023-05-10T04:48:46;4.60;;;2.40;;
32639;SDS011;19049;52.524;11.468;2023-05-10T04:51:12;3.57;;;2.37;;
32639;SDS011;19049;52.524;11.468;2023-05-10T04:53:38;3.13;;;2.37;;
32639;SDS011;19049;52.524;11.468;2023-05-10T04:56:04;7.03;;;2.77;;
32639;SDS011;19049;52.524;11.468;2023-05-10T04:58:30;2.70;;;2.30;;
32639;SDS011;19049;52.524;11.468;2023-05-10T05:00:56;6.53;;;2.80;;
32639;SDS011;19049;52.524;11.468;2023-05-10T05:03:22;2.80;;;2.50;;
32639;SDS011;19049;52.524;11.468;2023-05-10T05:05:48;6.10;;;2.57;;
32639;SDS011;19049;52.524;11.468;2023-05-10T05:08:14;3.70;;;2.80;;
32639;SDS011;19049;52.524;11.468;2023-05-10T05:10:39;3.40;;;2.63;;
32639;SDS011;19049;52.524;11.468;2023-05-10T05:13:05;3.40;;;2.43;;
32639;SDS011;19049;52.524;11.468;2023-05-10T05:15:31;7.57;;;2.33;;
32639;SDS011;19049;52.524;11.468;2023-05-10T05:17:57;4.37;;;2.40;;
32639;SDS011;19049;52.524;11.468;2023-05-10T05:20:23;3.00;;;2.43;;
32639;SDS011;19049;52.524;11.468;2023-05-10T05:22:49;3.07;;;2.30;;
32639;SDS011;19049;52.524;11.468;2023-05-10T05:25:15;4.20;;;2.10;;
32639;SDS011;19049;52.524;11.468;2023-05-10T05:27:41;2.30;;;2.10;;
32639;SDS011;19049;52.524;11.468;2023-05-10T05:30:07;2.83;;;2.20;;
32639;SDS011;19049;52.524;11.468;2023-05-10T05:32:33;3.30;;;2.60;;
32639;SDS011;19049;52.524;11.468;2023-05-10T05:34:58;3.60;;;2.63;;
32639;SDS011;19049;52.524;11.468;2023-05-10T05:37:24;2.73;;;2.50;;
32639;SDS011;19049;52.524;11.468;2023-05-10T05:39:50;3.73;;;2.50;;
32639;SDS011;19049;52.524;11.468;2023-05-10T05:42:16;3.50;;;2.70;;
32639;SDS011;19049;52.524;11.468;2023-05-10T05:44:43;7.50;;;2.93;;
32639;SDS011;19049;52.524;11.468;2023-05-10T05:47:10;3.70;;;2.90;;
32639;SDS011;19049;52.524;11.468;2023-05-10T05:49:35;2.37;;;2.17;;
32639;SDS011;19049;52.524;11.468;2023-05-10T05:52:02;5.63;;;2.50;;
32639;SDS011;19049;52.524;11.468;2023-05-10T05:54:29;4.80;;;2.47;;
32639;SDS011;19049;52.524;11.468;2023-05-10T05:56:58;4.23;;;2.97;;
32639;SDS011;19049;52.524;11.468;2023-05-10T05:59:24;5.60;;;3.23;;
32639;SDS011;19049;52.524;11.468;2023-05-10T06:01:51;3.13;;;2.43;;
32639;SDS011;19049;52.524;11.468;2023-05-10T06:04:16;5.87;;;2.83;;
32639;SDS011;19049;52.524;11.468;2023-05-10T06:06:42;2.70;;;2.40;;
32639;SDS011;19049;52.524;11.468;2023-05-10T06:09:08;3.63;;;2.70;;
32639;SDS011;19049;52.524;11.468;2023-05-10T06:11:34;3.30;;;2.87;;
32639;SDS011;19049;52.524;11.468;2023-05-10T06:14:00;3.77;;;2.60;;
32639;SDS011;19049;52.524;11.468;2023-05-10T06:16:27;3.80;;;2.13;;
32639;SDS011;19049;52.524;11.468;2023-05-10T06:18:53;6.43;;;2.50;;
32639;SDS011;19049;52.524;11.468;2023-05-10T06:21:18;3.23;;;2.30;;
32639;SDS011;19049;52.524;11.468;2023-05-10T06:23:44;6.83;;;2.60;;
32639;SDS011;19049;52.524;11.468;2023-05-10T06:26:10;2.80;;;2.37;;
32639;SDS011;19049;52.524;11.468;2023-05-10T06:28:36;2.63;;;2.43;;
32639;SDS011;19049;52.524;11.468;2023-05-10T06:31:05;3.40;;;2.97;;
32639;SDS011;19049;52.524;11.468;2023-05-10T06:33:31;3.70;;;3.13;;
32639;SDS011;19049;52.524;11.468;2023-05-10T06:35:57;5.60;;;2.30;;
32639;SDS011;19049;52.524;11.468;2023-05-10T06:38:23;4.90;;;2.40;;
32639;SDS011;19049;52.524;11.468;2023-05-10T06:40:49;3.17;;;2.60;;
32639;SDS011;19049;52.524;11.468;2023-05-10T06:43:16;5.30;;;2.50;;
32639;SDS011;19049;52.524;11.468;2023-05-10T06:45:42;3.70;;;2.70;;
32639;SDS011;19049;52.524;11.468;2023-05-10T06:48:08;4.10;;;2.60;;
32639;SDS011;19049;52.524;11.468;2023-05-10T06:50:33;4.23;;;2.50;;
32639;SDS011;19049;52.524;11.468;2023-05-10T06:53:00;2.70;;;2.20;;
32639;SDS011;19049;52.524;11.468;2023-05-10T06:55:27;5.03;;;2.30;;
32639;SDS011;19049;52.524;11.468;2023-05-10T06:57:53;4.07;;;2.10;;
32639;SDS011;19049;52.524;11.468;2023-05-10T07:00:19;4.63;;;2.37;;
32639;SDS011;19049;52.524;11.468;2023-05-10T07:02:45;2.47;;;2.27;;
32639;SDS011;19049;52.524;11.468;2023-05-10T07:05:11;3.80;;;2.50;;
32639;SDS011;19049;52.524;11.468;2023-05-10T07:07:37;3.93;;;2.30;;
32639;SDS011;19049;52.524;11.468;2023-05-10T07:10:03;5.20;;;2.70;;
32639;SDS011;19049;52.524;11.468;2023-05-10T07:12:29;3.80;;;2.30;;
32639;SDS011;19049;52.524;11.468;2023-05-10T07:14:55;4.30;;;2.00;;
32639;SDS011;19049;52.524;11.468;2023-05-10T07:17:20;2.77;;;2.30;;
32639;SDS011;19049;52.524;11.468;2023-05-10T07:19:46;2.90;;;2.53;;
32639;SDS011;19049;52.524;11.468;2023-05-10T07:22:12;2.70;;;2.20;;
32639;SDS011;19049;52.524;11.468;2023-05-10T07:24:38;2.23;;;2.00;;
32639;SDS011;19049;52.524;11.468;2023-05-10T07:27:04;2.10;;;1.90;;
32639;SDS011;19049;52.524;11.468;2023-05-10T07:29:30;1.90;;;1.63;;
32639;SDS011;19049;52.524;11.468;2023-05-10T07:31:56;2.57;;;1.90;;
32639;SDS011;19049;52.524;11.468;2023-05-10T07:34:22;3.03;;;2.40;;
32639;SDS011;19049;52.524;11.468;2023-05-10T07:36:48;2.63;;;2.13;;
32639;SDS011;19049;52.524;11.468;2023-05-10T07:39:14;2.43;;;2.23;;
32639;SDS011;19049;52.524;11.468;2023-05-10T07:41:41;4.30;;;2.00;;
32639;SDS011;19049;52.524;11.468;2023-05-10T07:44:07;2.37;;;2.10;;
32639;SDS011;19049;52.524;11.468;2023-05-10T07:46:33;4.00;;;2.27;;
32639;SDS011;19049;52.524;11.468;2023-05-10T07:49:00;2.93;;;2.10;;
32639;SDS011;19049;52.524;11.468;2023-05-10T07:51:26;2.50;;;2.30;;
32639;SDS011;19049;52.524;11.468;2023-05-10T07:53:53;2.43;;;1.97;;
32639;SDS011;19049;52.524;11.468;2023-05-10T07:56:20;2.70;;;1.90;;
32639;SDS011;19049;52.524;11.468;2023-05-10T07:59:01;2.67;;;2.23;;
32639;SDS011;19049;52.524;11.468;2023-05-10T08:01:32;4.43;;;2.40;;
32639;SDS011;19049;52.524;11.468;2023-05-10T08:03:58;3.40;;;2.70;;
32639;SDS011;19049;52.524;11.468;2023-05-10T08:06:25;4.13;;;2.67;;
32639;SDS011;19049;52.524;11.468;2023-05-10T08:08:55;4.27;;;2.30;;
32639;SDS011;19049;52.524;11.468;2023-05-10T08:11:20;2.50;;;2.30;;
32639;SDS011;19049;52.524;11.468;2023-05-10T08:13:47;4.80;;;2.47;;
32639;SDS011;19049;52.524;11.468;2023-05-10T08:16:13;2.27;;;2.03;;
32639;SDS011;19049;52.524;11.468;2023-05-10T08:18:39;5.20;;;2.00;;
32639;SDS011;19049;52.524;11.468;2023-05-10T08:21:05;2.77;;;2.37;;
32639;SDS011;19049;52.524;11.468;2023-05-10T08:23:31;2.80;;;2.50;;
32639;SDS011;19049;52.524;11.468;2023-05-10T08:25:57;4.40;;;2.20;;
32639;SDS011;19049;52.524;11.468;2023-05-10T08:28:22;2.63;;;2.13;;
32639;SDS011;19049;52.524;11.468;2023-05-10T08:30:49;2.40;;;2.10;;
32639;SDS011;19049;52.524;11.468;2023-05-10T08:33:15;3.87;;;2.00;;
32639;SDS011;19049;52.524;11.468;2023-05-10T08:35:42;2.10;;;1.87;;
32639;SDS011;19049;52.524;11.468;2023-05-10T08:38:08;5.07;;;1.80;;
32639;SDS011;19049;52.524;11.468;2023-05-10T08:40:33;4.30;;;2.07;;
32639;SDS011;19049;52.524;11.468;2023-05-10T08:43:05;2.47;;;1.97;;
32639;SDS011;19049;52.524;11.468;2023-05-10T08:45:37;4.20;;;2.70;;
32639;SDS011;19049;52.524;11.468;2023-05-10T08:48:05;5.83;;;2.40;;
32639;SDS011;19049;52.524;11.468;2023-05-10T08:50:32;4.90;;;2.90;;
32639;SDS011;19049;52.524;11.468;2023-05-10T08:53:06;2.47;;;1.97;;
32639;SDS011;19049;52.524;11.468;2023-05-10T08:55:36;2.97;;;2.40;;
32639;SDS011;19049;52.524;11.468;2023-05-10T08:58:04;3.07;;;2.37;;
32639;SDS011;19049;52.524;11.468;2023-05-10T09:00:30;2.30;;;2.10;;
32639;SDS011;19049;52.524;11.468;2023-05-10T09:02:57;2.77;;;2.13;;
32639;SDS011;19049;52.524;11.468;2023-05-10T09:05:23;3.77;;;2.47;;
32639;SDS011;19049;52.524;11.468;2023-05-10T09:07:49;3.63;;;2.10;;
32639;SDS011;19049;52.524;11.468;2023-05-10T09:10:15;3.23;;;2.63;;
32639;SDS011;19049;52.524;11.468;2023-05-10T09:12:41;3.57;;;2.20;;
32639;SDS011;19049;52.524;11.468;2023-05-10T09:15:09;2.57;;;2.13;;
32639;SDS011;19049;52.524;11.468;2023-05-10T09:17:35;3.40;;;1.73;;
32639;SDS011;19049;52.524;11.468;2023-05-10T09:20:02;2.60;;;2.20;;
32639;SDS011;19049;52.524;11.468;2023-05-10T09:22:31;2.47;;;2.10;;
32639;SDS011;19049;52.524;11.468;2023-05-10T09:25:08;2.40;;;1.90;;
32639;SDS011;19049;52.524;11.468;2023-05-10T09:27:34;3.30;;;2.63;;
32639;SDS011;19049;52.524;11.468;2023-05-10T09:30:01;2.20;;;2.00;;
32639;SDS011;19049;52.524;11.468;2023-05-10T09:35:16;2.97;;;2.10;;
32639;SDS011;19049;52.524;11.468;2023-05-10T09:37:47;3.50;;;2.23;;
32639;SDS011;19049;52.524;11.468;2023-05-10T09:40:28;2.37;;;2.17;;
32639;SDS011;19049;52.524;11.468;2023-05-10T09:45:22;1.83;;;1.73;;
32639;SDS011;19049;52.524;11.468;2023-05-10T09:47:48;5.43;;;2.30;;
32639;SDS011;19049;52.524;11.468;2023-05-10T09:50:14;1.70;;;1.60;;
32639;SDS011;19049;52.524;11.468;2023-05-10T09:52:47;2.60;;;2.30;;
32639;SDS011;19049;52.524;11.468;2023-05-10T09:55:14;2.23;;;2.03;;
32639;SDS011;19049;52.524;11.468;2023-05-10T09:57:41;3.23;;;2.93;;
32639;SDS011;19049;52.524;11.468;2023-05-10T10:00:07;3.50;;;2.67;;
32639;SDS011;19049;52.524;11.468;2023-05-10T10:02:35;3.23;;;2.47;;
32639;SDS011;19049;52.524;11.468;2023-05-10T10:05:01;2.30;;;2.10;;
32639;SDS011;19049;52.524;11.468;2023-05-10T10:07:30;2.50;;;2.30;;
32639;SDS011;19049;52.524;11.468;2023-05-10T10:09:56;2.50;;;2.30;;
32639;SDS011;19049;52.524;11.468;2023-05-10T10:12:22;3.37;;;2.60;;
32639;SDS011;19049;52.524;11.468;2023-05-10T10:14:48;2.60;;;2.40;;
32639;SDS011;19049;52.524;11.468;2023-05-10T10:17:15;5.67;;;2.90;;
32639;SDS011;19049;52.524;11.468;2023-05-10T10:19:42;3.17;;;2.13;;
32639;SDS011;19049;52.524;11.468;2023-05-10T10:22:08;4.93;;;2.90;;
32639;SDS011;19049;52.524;11.468;2023-05-10T10:24:36;3.23;;;2.80;;
32639;SDS011;19049;52.524;11.468;2023-05-10T10:27:07;3.10;;;2.73;;
32639;SDS011;19049;52.524;11.468;2023-05-10T10:35:33;3.97;;;3.53;;
32639;SDS011;19049;52.524;11.468;2023-05-10T10:38:00;3.43;;;3.00;;
32639;SDS011;19049;52.524;11.468;2023-05-10T10:40:29;3.50;;;2.43;;
32639;SDS011;19049;52.524;11.468;2023-05-10T10:43:20;2.30;;;2.10;;
32639;SDS011;19049;52.524;11.468;2023-05-10T10:49:08;4.90;;;3.27;;
32639;SDS011;19049;52.524;11.468;2023-05-10T10:51:38;5.27;;;3.53;;
32639;SDS011;19049;52.524;11.468;2023-05-10T10:54:10;4.87;;;3.13;;
32639;SDS011;19049;52.524;11.468;2023-05-10T10:56:36;4.47;;;3.20;;
32639;SDS011;19049;52.524;11.468;2023-05-10T10:59:02;5.10;;;3.40;;
32639;SDS011;19049;52.524;11.468;2023-05-10T11:01:32;3.63;;;3.00;;
32639;SDS011;19049;52.524;11.468;2023-05-10T11:06:31;4.57;;;3.53;;
32639;SDS011;19049;52.524;11.468;2023-05-10T11:08:59;4.13;;;3.40;;
32639;SDS011;19049;52.524;11.468;2023-05-10T11:11:35;4.17;;;3.50;;
32639;SDS011;19049;52.524;11.468;2023-05-10T11:14:05;3.23;;;2.93;;
32639;SDS011;19049;52.524;11.468;2023-05-10T11:16:42;5.37;;;3.00;;
32639;SDS011;19049;52.524;11.468;2023-05-10T11:19:11;3.60;;;2.30;;
32639;SDS011;19049;52.524;11.468;2023-05-10T11:21:51;3.37;;;3.07;;
32639;SDS011;19049;52.524;11.468;2023-05-10T11:24:36;3.03;;;2.73;;
32639;SDS011;19049;52.524;11.468;2023-05-10T11:27:02;3.23;;;2.57;;
32639;SDS011;19049;52.524;11.468;2023-05-10T11:29:28;5.80;;;2.70;;
32639;SDS011;19049;52.524;11.468;2023-05-10T11:31:56;2.80;;;2.40;;
32639;SDS011;19049;52.524;11.468;2023-05-10T11:34:31;3.43;;;3.13;;
32639;SDS011;19049;52.524;11.468;2023-05-10T11:37:00;3.37;;;2.97;;
32639;SDS011;19049;52.524;11.468;2023-05-10T11:39:27;3.70;;;3.30;;
32639;SDS011;19049;52.524;11.468;2023-05-10T11:41:54;3.07;;;2.73;;
32639;SDS011;19049;52.524;11.468;2023-05-10T11:44:19;3.97;;;3.50;;
32639;SDS011;19049;52.524;11.468;2023-05-10T11:46:45;3.07;;;2.77;;
32639;SDS011;19049;52.524;11.468;2023-05-10T11:49:11;2.60;;;2.40;;
32639;SDS011;19049;52.524;11.468;2023-05-10T11:51:38;4.00;;;3.23;;
32639;SDS011;19049;52.524;11.468;2023-05-10T11:54:09;6.30;;;4.20;;
32639;SDS011;19049;52.524;11.468;2023-05-10T11:56:36;4.87;;;3.23;;
32639;SDS011;19049;52.524;11.468;2023-05-10T11:59:03;4.17;;;3.40;;
32639;SDS011;19049;52.524;11.468;2023-05-10T12:01:29;5.80;;;3.23;;
32639;SDS011;19049;52.524;11.468;2023-05-10T12:03:56;3.33;;;2.90;;
32639;SDS011;19049;52.524;11.468;2023-05-10T12:06:26;4.03;;;3.33;;
32639;SDS011;19049;52.524;11.468;2023-05-10T12:08:53;4.10;;;3.70;;
32639;SDS011;19049;52.524;11.468;2023-05-10T12:11:19;4.40;;;3.50;;
32639;SDS011;19049;52.524;11.468;2023-05-10T12:13:46;4.57;;;3.97;;
32639;SDS011;19049;52.524;11.468;2023-05-10T12:16:12;4.03;;;3.63;;
32639;SDS011;19049;52.524;11.468;2023-05-10T12:18:39;3.87;;;3.27;;
32639;SDS011;19049;52.524;11.468;2023-05-10T12:21:06;3.97;;;3.20;;
32639;SDS011;19049;52.524;11.468;2023-05-10T12:23:32;5.10;;;4.00;;
32639;SDS011;19049;52.524;11.468;2023-05-10T12:26:04;4.50;;;3.77;;
32639;SDS011;19049;52.524;11.468;2023-05-10T12:28:31;5.07;;;3.63;;
32639;SDS011;19049;52.524;11.468;2023-05-10T12:30:58;4.37;;;3.77;;
32639;SDS011;19049;52.524;11.468;2023-05-10T12:33:24;4.50;;;4.10;;
32639;SDS011;19049;52.524;11.468;2023-05-10T12:35:51;4.57;;;4.17;;
32639;SDS011;19049;52.524;11.468;2023-05-10T12:38:24;3.90;;;3.50;;
32639;SDS011;19049;52.524;11.468;2023-05-10T12:40:51;5.27;;;3.17;;
32639;SDS011;19049;52.524;11.468;2023-05-10T12:43:17;3.30;;;3.00;;
32639;SDS011;19049;52.524;11.468;2023-05-10T12:45:43;3.30;;;2.97;;
32639;SDS011;19049;52.524;11.468;2023-05-10T12:48:12;3.77;;;3.37;;
32639;SDS011;19049;52.524;11.468;2023-05-10T12:50:38;4.17;;;2.93;;
32639;SDS011;19049;52.524;11.468;2023-05-10T12:53:04;4.73;;;3.27;;
32639;SDS011;19049;52.524;11.468;2023-05-10T12:55:30;3.57;;;3.03;;
32639;SDS011;19049;52.524;11.468;2023-05-10T12:57:56;3.13;;;2.93;;
32639;SDS011;19049;52.524;11.468;2023-05-10T13:00:22;3.07;;;2.77;;
32639;SDS011;19049;52.524;11.468;2023-05-10T13:02:48;2.73;;;2.53;;
32639;SDS011;19049;52.524;11.468;2023-05-10T13:05:14;4.03;;;2.80;;
32639;SDS011;19049;52.524;11.468;2023-05-10T13:07:40;3.83;;;2.23;;
32639;SDS011;19049;52.524;11.468;2023-05-10T13:10:06;3.00;;;2.70;;
32639;SDS011;19049;52.524;11.468;2023-05-10T13:12:32;2.83;;;2.30;;
32639;SDS011;19049;52.524;11.468;2023-05-10T13:14:58;2.53;;;2.33;;
32639;SDS011;19049;52.524;11.468;2023-05-10T13:17:25;2.23;;;2.03;;
32639;SDS011;19049;52.524;11.468;2023-05-10T13:19:50;2.23;;;2.03;;
32639;SDS011;19049;52.524;11.468;2023-05-10T13:22:16;2.20;;;2.00;;
32639;SDS011;19049;52.524;11.468;2023-05-10T13:24:42;1.93;;;1.83;;
32639;SDS011;19049;52.524;11.468;2023-05-10T13:27:08;1.80;;;1.70;;
32639;SDS011;19049;52.524;11.468;2023-05-10T13:29:34;2.13;;;1.93;;
32639;SDS011;19049;52.524;11.468;2023-05-10T13:32:00;2.70;;;2.50;;
32639;SDS011;19049;52.524;11.468;2023-05-10T13:34:26;2.43;;;2.23;;
32639;SDS011;19049;52.524;11.468;2023-05-10T13:36:52;2.73;;;2.50;;
32639;SDS011;19049;52.524;11.468;2023-05-10T13:39:19;2.73;;;2.53;;
32639;SDS011;19049;52.524;11.468;2023-05-10T13:41:45;3.03;;;2.50;;
32639;SDS011;19049;52.524;11.468;2023-05-10T13:44:12;2.20;;;2.00;;
32639;SDS011;19049;52.524;11.468;2023-05-10T13:46:39;3.10;;;2.90;;
32639;SDS011;19049;52.524;11.468;2023-05-10T13:49:05;2.40;;;2.20;;
32639;SDS011;19049;52.524;11.468;2023-05-10T13:51:31;2.23;;;2.03;;
32639;SDS011;19049;52.524;11.468;2023-05-10T13:53:56;2.33;;;2.13;;
32639;SDS011;19049;52.524;11.468;2023-05-10T13:56:23;1.63;;;1.53;;
32639;SDS011;19049;52.524;11.468;2023-05-10T13:58:48;2.33;;;1.63;;
32639;SDS011;19049;52.524;11.468;2023-05-10T14:01:14;1.60;;;1.50;;
32639;SDS011;19049;52.524;11.468;2023-05-10T14:03:40;1.73;;;1.40;;
32639;SDS011;19049;52.524;11.468;2023-05-10T14:06:07;1.47;;;1.37;;
32639;SDS011;19049;52.524;11.468;2023-05-10T14:08:33;1.60;;;1.50;;
32639;SDS011;19049;52.524;11.468;2023-05-10T14:10:59;1.77;;;1.67;;
32639;SDS011;19049;52.524;11.468;2023-05-10T14:13:25;1.50;;;1.40;;
32639;SDS011;19049;52.524;11.468;2023-05-10T14:15:50;1.60;;;1.50;;
32639;SDS011;19049;52.524;11.468;2023-05-10T14:18:17;1.23;;;1.13;;
32639;SDS011;19049;52.524;11.468;2023-05-10T14:20:43;1.23;;;1.13;;
32639;SDS011;19049;52.524;11.468;2023-05-10T14:23:09;1.20;;;1.00;;
32639;SDS011;19049;52.524;11.468;2023-05-10T14:25:35;0.90;;;0.90;;
32639;SDS011;19049;52.524;11.468;2023-05-10T14:28:01;0.80;;;0.80;;
32639;SDS011;19049;52.524;11.468;2023-05-10T14:30:26;0.63;;;0.63;;
32639;SDS011;19049;52.524;11.468;2023-05-10T14:32:52;0.57;;;0.57;;
32639;SDS011;19049;52.524;11.468;2023-05-10T14:35:19;0.60;;;0.60;;
32639;SDS011;19049;52.524;11.468;2023-05-10T14:37:45;0.60;;;0.60;;
32639;SDS011;19049;52.524;11.468;2023-05-10T14:40:11;0.50;;;0.50;;
32639;SDS011;19049;52.524;11.468;2023-05-10T14:42:37;0.50;;;0.50;;
32639;SDS011;19049;52.524;11.468;2023-05-10T14:45:03;0.50;;;0.50;;
32639;SDS011;19049;52.524;11.468;2023-05-10T14:47:29;0.70;;;0.70;;
32639;SDS011;19049;52.524;11.468;2023-05-10T14:49:55;0.70;;;0.70;;
32639;SDS011;19049;52.524;11.468;2023-05-10T14:52:21;0.80;;;0.80;;
32639;SDS011;19049;52.524;11.468;2023-05-10T14:54:47;0.67;;;0.67;;
32639;SDS011;19049;52.524;11.468;2023-05-10T14:57:13;0.50;;;0.50;;
32639;SDS011;19049;52.524;11.468;2023-05-10T14:59:39;0.87;;;0.67;;
32639;SDS011;19049;52.524;11.468;2023-05-10T15:02:05;0.80;;;0.80;;
32639;SDS011;19049;52.524;11.468;2023-05-10T15:04:33;0.70;;;0.70;;